sensor_id;sensor_type;location;lat;lon;timestamp;temperature;humidity
21627;DHT22;10975;47.872;12.972;2022-12-18T00:03:43;-6.90;99.90
21627;DHT22;10975;47.872;12.972;2022-12-18T00:06:20;-6.90;99.90
21627;DHT22;10975;47.872;12.972;2022-12-18T00:08:58;-6.90;99.90
21627;DHT22;10975;47.872;12.972;2022-12-18T00:11:50;-6.90;99.90
21627;DHT22;10975;47.872;12.972;2022-12-18T00:17:24;-6.70;99.90
21627;DHT22;10975;47.872;12.972;2022-12-18T00:19:51;-6.80;99.90
21627;DHT22;10975;47.872;12.972;2022-12-18T00:22:18;-6.80;99.90
21627;DHT22;10975;47.872;12.972;2022-12-18T00:27:40;-6.70;99.90
21627;DHT22;10975;47.872;12.972;2022-12-18T00:30:07;-6.70;99.90
21627;DHT22;10975;47.872;12.972;2022-12-18T00:32:35;-6.80;99.90
21627;DHT22;10975;47.872;12.972;2022-12-18T00:35:02;-6.90;99.90
21627;DHT22;10975;47.872;12.972;2022-12-18T00:37:34;-6.90;99.90
21627;DHT22;10975;47.872;12.972;2022-12-18T00:40:02;-6.80;99.90
21627;DHT22;10975;47.872;12.972;2022-12-18T00:42:28;-6.80;99.90
21627;DHT22;10975;47.872;12.972;2022-12-18T00:45:31;-6.90;99.90
21627;DHT22;10975;47.872;12.972;2022-12-18T00:47:58;-7.00;99.90
21627;DHT22;10975;47.872;12.972;2022-12-18T00:50:25;-6.90;99.90
21627;DHT22;10975;47.872;12.972;2022-12-18T00:53:10;-6.90;99.90
21627;DHT22;10975;47.872;12.972;2022-12-18T00:55:45;-6.80;99.90
21627;DHT22;10975;47.872;12.972;2022-12-18T00:58:32;-6.70;99.90
21627;DHT22;10975;47.872;12.972;2022-12-18T01:00:58;-6.60;99.90
21627;DHT22;10975;47.872;12.972;2022-12-18T01:03:28;-6.50;99.90
21627;DHT22;10975;47.872;12.972;2022-12-18T01:05:54;-6.50;99.90
21627;DHT22;10975;47.872;12.972;2022-12-18T01:08:21;-6.50;99.90
21627;DHT22;10975;47.872;12.972;2022-12-18T01:10:48;-6.40;99.90
21627;DHT22;10975;47.872;12.972;2022-12-18T01:13:15;-6.30;99.90
21627;DHT22;10975;47.872;12.972;2022-12-18T01:15:48;-6.20;99.90
21627;DHT22;10975;47.872;12.972;2022-12-18T01:18:15;-6.10;99.90
21627;DHT22;10975;47.872;12.972;2022-12-18T01:20:55;-6.10;99.90
21627;DHT22;10975;47.872;12.972;2022-12-18T01:23:22;-6.00;99.90
21627;DHT22;10975;47.872;12.972;2022-12-18T01:25:49;-6.00;99.90
21627;DHT22;10975;47.872;12.972;2022-12-18T01:28:32;-6.00;99.90
21627;DHT22;10975;47.872;12.972;2022-12-18T01:31:43;-5.90;99.90
21627;DHT22;10975;47.872;12.972;2022-12-18T01:37:51;-5.80;99.90
21627;DHT22;10975;47.872;12.972;2022-12-18T01:41:20;-5.80;99.90
21627;DHT22;10975;47.872;12.972;2022-12-18T02:16:14;-6.20;99.90
21627;DHT22;10975;47.872;12.972;2022-12-18T02:18:47;-6.20;99.90
21627;DHT22;10975;47.872;12.972;2022-12-18T02:26:51;-6.40;99.90
21627;DHT22;10975;47.872;12.972;2022-12-18T02:29:22;-6.40;99.90
21627;DHT22;10975;47.872;12.972;2022-12-18T02:32:10;-6.40;99.90
21627;DHT22;10975;47.872;12.972;2022-12-18T02:34:39;-6.40;99.90
21627;DHT22;10975;47.872;12.972;2022-12-18T02:37:07;-6.40;99.90
21627;DHT22;10975;47.872;12.972;2022-12-18T02:39:35;-6.40;99.90
21627;DHT22;10975;47.872;12.972;2022-12-18T02:42:05;-6.30;99.90
21627;DHT22;10975;47.872;12.972;2022-12-18T02:44:35;-6.30;99.90
21627;DHT22;10975;47.872;12.972;2022-12-18T02:47:01;-6.30;99.90
21627;DHT22;10975;47.872;12.972;2022-12-18T02:49:35;-6.30;99.90
21627;DHT22;10975;47.872;12.972;2022-12-18T02:52:19;-6.30;99.90
21627;DHT22;10975;47.872;12.972;2022-12-18T03:00:07;-6.30;99.90
21627;DHT22;10975;47.872;12.972;2022-12-18T03:07:58;-6.10;99.90
21627;DHT22;10975;47.872;12.972;2022-12-18T03:10:28;-6.20;99.90
21627;DHT22;10975;47.872;12.972;2022-12-18T03:13:07;-6.30;99.90
21627;DHT22;10975;47.872;12.972;2022-12-18T03:15:37;-6.30;99.90
21627;DHT22;10975;47.872;12.972;2022-12-18T03:18:10;-6.30;99.90
21627;DHT22;10975;47.872;12.972;2022-12-18T03:20:40;-6.10;99.90
21627;DHT22;10975;47.872;12.972;2022-12-18T03:23:09;-6.00;99.90
21627;DHT22;10975;47.872;12.972;2022-12-18T03:25:37;-5.90;99.90
21627;DHT22;10975;47.872;12.972;2022-12-18T03:28:06;-5.80;99.90
21627;DHT22;10975;47.872;12.972;2022-12-18T03:30:34;-5.90;99.90
21627;DHT22;10975;47.872;12.972;2022-12-18T03:33:05;-5.90;99.90
21627;DHT22;10975;47.872;12.972;2022-12-18T03:35:35;-5.80;99.90
21627;DHT22;10975;47.872;12.972;2022-12-18T03:38:02;-5.70;99.90
21627;DHT22;10975;47.872;12.972;2022-12-18T03:40:35;-5.70;99.90
21627;DHT22;10975;47.872;12.972;2022-12-18T03:43:10;-5.70;99.90
21627;DHT22;10975;47.872;12.972;2022-12-18T03:45:38;-5.80;99.90
21627;DHT22;10975;47.872;12.972;2022-12-18T03:50:41;-5.80;99.90
21627;DHT22;10975;47.872;12.972;2022-12-18T03:58:16;-5.70;99.90
21627;DHT22;10975;47.872;12.972;2022-12-18T04:00:43;-5.80;99.90
21627;DHT22;10975;47.872;12.972;2022-12-18T04:03:10;-5.80;99.90
21627;DHT22;10975;47.872;12.972;2022-12-18T04:05:37;-5.80;99.90
21627;DHT22;10975;47.872;12.972;2022-12-18T04:08:04;-5.70;99.90
21627;DHT22;10975;47.872;12.972;2022-12-18T04:10:31;-5.70;99.90
21627;DHT22;10975;47.872;12.972;2022-12-18T04:12:58;-5.70;99.90
21627;DHT22;10975;47.872;12.972;2022-12-18T04:15:25;-5.60;99.90
21627;DHT22;10975;47.872;12.972;2022-12-18T04:17:52;-5.60;99.90
21627;DHT22;10975;47.872;12.972;2022-12-18T04:20:18;-5.60;99.90
21627;DHT22;10975;47.872;12.972;2022-12-18T04:22:45;-5.60;99.90
21627;DHT22;10975;47.872;12.972;2022-12-18T04:25:12;-5.70;99.90
21627;DHT22;10975;47.872;12.972;2022-12-18T04:27:39;-5.80;99.90
21627;DHT22;10975;47.872;12.972;2022-12-18T04:30:06;-5.80;99.90
21627;DHT22;10975;47.872;12.972;2022-12-18T04:32:33;-5.80;99.90
21627;DHT22;10975;47.872;12.972;2022-12-18T04:35:00;-5.80;99.90
21627;DHT22;10975;47.872;12.972;2022-12-18T04:37:26;-5.80;99.90
21627;DHT22;10975;47.872;12.972;2022-12-18T04:39:53;-5.70;99.90
21627;DHT22;10975;47.872;12.972;2022-12-18T04:42:20;-5.70;99.90
21627;DHT22;10975;47.872;12.972;2022-12-18T04:44:46;-5.70;99.90
21627;DHT22;10975;47.872;12.972;2022-12-18T04:47:13;-5.80;99.90
21627;DHT22;10975;47.872;12.972;2022-12-18T04:49:40;-5.80;99.90
21627;DHT22;10975;47.872;12.972;2022-12-18T04:52:09;-5.80;99.90
21627;DHT22;10975;47.872;12.972;2022-12-18T04:54:36;-5.80;99.90
21627;DHT22;10975;47.872;12.972;2022-12-18T04:57:03;-5.80;99.90
21627;DHT22;10975;47.872;12.972;2022-12-18T04:59:33;-5.80;99.90
21627;DHT22;10975;47.872;12.972;2022-12-18T05:02:00;-5.80;99.90
21627;DHT22;10975;47.872;12.972;2022-12-18T05:04:27;-5.70;99.90
21627;DHT22;10975;47.872;12.972;2022-12-18T05:06:54;-5.70;99.90
21627;DHT22;10975;47.872;12.972;2022-12-18T05:09:20;-5.70;99.90
21627;DHT22;10975;47.872;12.972;2022-12-18T05:11:47;-5.70;99.90
21627;DHT22;10975;47.872;12.972;2022-12-18T05:14:14;-5.70;99.90
21627;DHT22;10975;47.872;12.972;2022-12-18T05:16:40;-5.70;99.90
21627;DHT22;10975;47.872;12.972;2022-12-18T05:19:07;-5.80;99.90
21627;DHT22;10975;47.872;12.972;2022-12-18T05:21:34;-5.90;99.90
21627;DHT22;10975;47.872;12.972;2022-12-18T05:24:00;-5.90;99.90
21627;DHT22;10975;47.872;12.972;2022-12-18T05:26:35;-5.90;99.90
21627;DHT22;10975;47.872;12.972;2022-12-18T05:29:02;-5.90;99.90
21627;DHT22;10975;47.872;12.972;2022-12-18T05:31:29;-5.80;99.90
21627;DHT22;10975;47.872;12.972;2022-12-18T05:34:02;-5.80;99.90
21627;DHT22;10975;47.872;12.972;2022-12-18T05:36:29;-5.80;99.90
21627;DHT22;10975;47.872;12.972;2022-12-18T05:38:56;-5.80;99.90
21627;DHT22;10975;47.872;12.972;2022-12-18T05:41:23;-5.80;99.90
21627;DHT22;10975;47.872;12.972;2022-12-18T05:43:52;-5.90;99.90
21627;DHT22;10975;47.872;12.972;2022-12-18T05:46:19;-5.90;99.90
21627;DHT22;10975;47.872;12.972;2022-12-18T05:48:46;-5.80;99.90
21627;DHT22;10975;47.872;12.972;2022-12-18T05:51:14;-5.80;99.90
21627;DHT22;10975;47.872;12.972;2022-12-18T05:53:41;-5.80;99.90
21627;DHT22;10975;47.872;12.972;2022-12-18T05:56:10;-5.90;99.90
21627;DHT22;10975;47.872;12.972;2022-12-18T05:58:37;-5.90;99.90
21627;DHT22;10975;47.872;12.972;2022-12-18T06:01:09;-5.80;99.90
21627;DHT22;10975;47.872;12.972;2022-12-18T06:03:36;-5.80;99.90
21627;DHT22;10975;47.872;12.972;2022-12-18T06:06:03;-5.80;99.90
21627;DHT22;10975;47.872;12.972;2022-12-18T06:08:30;-5.80;99.90
21627;DHT22;10975;47.872;12.972;2022-12-18T06:10:57;-5.80;99.90
21627;DHT22;10975;47.872;12.972;2022-12-18T06:13:24;-5.80;99.90
21627;DHT22;10975;47.872;12.972;2022-12-18T06:15:51;-5.90;99.90
21627;DHT22;10975;47.872;12.972;2022-12-18T06:18:17;-5.90;99.90
21627;DHT22;10975;47.872;12.972;2022-12-18T06:20:44;-5.80;99.90
21627;DHT22;10975;47.872;12.972;2022-12-18T06:23:11;-5.80;99.90
21627;DHT22;10975;47.872;12.972;2022-12-18T06:25:38;-5.80;99.90
21627;DHT22;10975;47.872;12.972;2022-12-18T06:28:05;-5.90;99.90
21627;DHT22;10975;47.872;12.972;2022-12-18T06:30:32;-6.00;99.90
21627;DHT22;10975;47.872;12.972;2022-12-18T06:32:59;-6.00;99.90
21627;DHT22;10975;47.872;12.972;2022-12-18T06:35:26;-6.00;99.90
21627;DHT22;10975;47.872;12.972;2022-12-18T06:37:52;-6.00;99.90
21627;DHT22;10975;47.872;12.972;2022-12-18T06:40:19;-5.90;99.90
21627;DHT22;10975;47.872;12.972;2022-12-18T06:42:46;-5.80;99.90
21627;DHT22;10975;47.872;12.972;2022-12-18T06:45:13;-5.80;99.90
21627;DHT22;10975;47.872;12.972;2022-12-18T06:47:39;-5.90;99.90
21627;DHT22;10975;47.872;12.972;2022-12-18T06:50:06;-5.80;99.90
21627;DHT22;10975;47.872;12.972;2022-12-18T06:52:33;-5.90;99.90
21627;DHT22;10975;47.872;12.972;2022-12-18T06:55:00;-5.90;99.90
21627;DHT22;10975;47.872;12.972;2022-12-18T06:57:27;-5.80;99.90
21627;DHT22;10975;47.872;12.972;2022-12-18T06:59:53;-5.80;99.90
21627;DHT22;10975;47.872;12.972;2022-12-18T07:02:20;-5.90;99.90
21627;DHT22;10975;47.872;12.972;2022-12-18T07:04:50;-5.80;99.90
21627;DHT22;10975;47.872;12.972;2022-12-18T07:07:17;-5.90;99.90
21627;DHT22;10975;47.872;12.972;2022-12-18T07:09:44;-5.80;99.90
21627;DHT22;10975;47.872;12.972;2022-12-18T07:12:11;-5.90;99.90
21627;DHT22;10975;47.872;12.972;2022-12-18T07:14:37;-5.90;99.90
21627;DHT22;10975;47.872;12.972;2022-12-18T07:17:04;-5.90;99.90
21627;DHT22;10975;47.872;12.972;2022-12-18T07:19:38;-5.90;99.90
21627;DHT22;10975;47.872;12.972;2022-12-18T07:22:05;-5.90;99.90
21627;DHT22;10975;47.872;12.972;2022-12-18T07:24:32;-6.00;99.90
21627;DHT22;10975;47.872;12.972;2022-12-18T07:27:00;-6.00;99.90
21627;DHT22;10975;47.872;12.972;2022-12-18T07:29:27;-5.90;99.90
21627;DHT22;10975;47.872;12.972;2022-12-18T07:31:54;-5.90;99.90
21627;DHT22;10975;47.872;12.972;2022-12-18T07:34:20;-5.90;99.90
21627;DHT22;10975;47.872;12.972;2022-12-18T07:36:47;-5.90;99.90
21627;DHT22;10975;47.872;12.972;2022-12-18T07:39:14;-6.00;99.90
21627;DHT22;10975;47.872;12.972;2022-12-18T07:41:41;-6.00;99.90
21627;DHT22;10975;47.872;12.972;2022-12-18T07:44:30;-6.10;99.90
21627;DHT22;10975;47.872;12.972;2022-12-18T07:47:01;-6.10;99.90
21627;DHT22;10975;47.872;12.972;2022-12-18T07:49:33;-6.00;99.90
21627;DHT22;10975;47.872;12.972;2022-12-18T07:51:59;-6.20;99.90
21627;DHT22;10975;47.872;12.972;2022-12-18T07:54:26;-6.00;99.90
21627;DHT22;10975;47.872;12.972;2022-12-18T07:56:53;-5.90;99.90
21627;DHT22;10975;47.872;12.972;2022-12-18T07:59:20;-5.80;99.90
21627;DHT22;10975;47.872;12.972;2022-12-18T08:01:49;-5.70;99.90
21627;DHT22;10975;47.872;12.972;2022-12-18T08:04:16;-5.70;99.90
21627;DHT22;10975;47.872;12.972;2022-12-18T08:06:43;-5.60;99.90
21627;DHT22;10975;47.872;12.972;2022-12-18T08:09:13;-5.60;99.90
21627;DHT22;10975;47.872;12.972;2022-12-18T08:11:40;-5.70;99.90
21627;DHT22;10975;47.872;12.972;2022-12-18T08:14:17;-5.70;99.90
21627;DHT22;10975;47.872;12.972;2022-12-18T08:16:44;-5.70;99.90
21627;DHT22;10975;47.872;12.972;2022-12-18T08:19:11;-5.80;99.90
21627;DHT22;10975;47.872;12.972;2022-12-18T08:21:38;-5.80;99.90
21627;DHT22;10975;47.872;12.972;2022-12-18T08:24:05;-5.80;99.90
21627;DHT22;10975;47.872;12.972;2022-12-18T08:26:31;-6.00;99.90
21627;DHT22;10975;47.872;12.972;2022-12-18T08:29:01;-6.00;99.90
21627;DHT22;10975;47.872;12.972;2022-12-18T08:31:29;-5.90;99.90
21627;DHT22;10975;47.872;12.972;2022-12-18T08:33:56;-5.70;99.90
21627;DHT22;10975;47.872;12.972;2022-12-18T08:36:24;-5.80;99.90
21627;DHT22;10975;47.872;12.972;2022-12-18T08:38:52;-6.00;99.90
21627;DHT22;10975;47.872;12.972;2022-12-18T08:41:19;-6.00;99.90
21627;DHT22;10975;47.872;12.972;2022-12-18T08:43:46;-6.00;99.90
21627;DHT22;10975;47.872;12.972;2022-12-18T08:46:32;-5.90;99.90
21627;DHT22;10975;47.872;12.972;2022-12-18T08:49:00;-5.80;99.90
21627;DHT22;10975;47.872;12.972;2022-12-18T08:51:28;-5.70;99.90
21627;DHT22;10975;47.872;12.972;2022-12-18T08:53:54;-5.70;99.90
21627;DHT22;10975;47.872;12.972;2022-12-18T08:56:23;-5.80;99.90
21627;DHT22;10975;47.872;12.972;2022-12-18T08:58:51;-5.60;99.90
21627;DHT22;10975;47.872;12.972;2022-12-18T09:01:18;-5.50;99.90
21627;DHT22;10975;47.872;12.972;2022-12-18T09:03:44;-5.40;99.90
21627;DHT22;10975;47.872;12.972;2022-12-18T09:06:13;-5.30;99.90
21627;DHT22;10975;47.872;12.972;2022-12-18T09:08:40;-5.20;99.90
21627;DHT22;10975;47.872;12.972;2022-12-18T09:11:21;-5.20;99.90
21627;DHT22;10975;47.872;12.972;2022-12-18T09:13:48;-5.20;99.90
21627;DHT22;10975;47.872;12.972;2022-12-18T09:16:16;-5.30;99.90
21627;DHT22;10975;47.872;12.972;2022-12-18T09:18:43;-5.30;99.90
21627;DHT22;10975;47.872;12.972;2022-12-18T09:21:11;-5.30;99.90
21627;DHT22;10975;47.872;12.972;2022-12-18T09:23:38;-5.30;99.90
21627;DHT22;10975;47.872;12.972;2022-12-18T09:26:05;-5.30;99.90
21627;DHT22;10975;47.872;12.972;2022-12-18T09:28:32;-5.20;99.90
21627;DHT22;10975;47.872;12.972;2022-12-18T09:31:02;-5.20;99.90
21627;DHT22;10975;47.872;12.972;2022-12-18T09:33:29;-5.30;99.90
21627;DHT22;10975;47.872;12.972;2022-12-18T09:35:56;-5.30;99.90
21627;DHT22;10975;47.872;12.972;2022-12-18T09:38:23;-5.20;99.90
21627;DHT22;10975;47.872;12.972;2022-12-18T09:40:51;-5.20;99.90
21627;DHT22;10975;47.872;12.972;2022-12-18T09:43:36;-4.90;99.90
21627;DHT22;10975;47.872;12.972;2022-12-18T09:46:05;-4.90;99.90
21627;DHT22;10975;47.872;12.972;2022-12-18T09:48:36;-4.60;99.90
21627;DHT22;10975;47.872;12.972;2022-12-18T09:51:08;-4.80;99.90
21627;DHT22;10975;47.872;12.972;2022-12-18T09:53:41;-4.70;99.90
21627;DHT22;10975;47.872;12.972;2022-12-18T09:56:15;-4.70;99.90
21627;DHT22;10975;47.872;12.972;2022-12-18T09:59:23;-4.70;99.90
21627;DHT22;10975;47.872;12.972;2022-12-18T10:01:51;-4.60;99.90
21627;DHT22;10975;47.872;12.972;2022-12-18T10:04:18;-4.50;99.90
21627;DHT22;10975;47.872;12.972;2022-12-18T10:06:58;-4.60;99.90
21627;DHT22;10975;47.872;12.972;2022-12-18T10:09:39;-4.50;99.90
21627;DHT22;10975;47.872;12.972;2022-12-18T10:45:58;-3.50;99.90
21627;DHT22;10975;47.872;12.972;2022-12-18T10:48:34;-3.60;99.90
21627;DHT22;10975;47.872;12.972;2022-12-18T10:51:03;-3.40;99.90
21627;DHT22;10975;47.872;12.972;2022-12-18T11:07:56;-3.80;99.90
21627;DHT22;10975;47.872;12.972;2022-12-18T11:10:39;-3.80;99.90
21627;DHT22;10975;47.872;12.972;2022-12-18T11:15:52;-3.50;99.90
21627;DHT22;10975;47.872;12.972;2022-12-18T11:18:36;-3.40;99.90
21627;DHT22;10975;47.872;12.972;2022-12-18T11:21:18;-3.30;99.90
21627;DHT22;10975;47.872;12.972;2022-12-18T11:24:00;-3.10;99.90
21627;DHT22;10975;47.872;12.972;2022-12-18T11:26:37;-3.00;99.90
21627;DHT22;10975;47.872;12.972;2022-12-18T11:29:08;-3.00;99.90
21627;DHT22;10975;47.872;12.972;2022-12-18T11:31:36;-3.10;99.90
21627;DHT22;10975;47.872;12.972;2022-12-18T11:37:07;-3.10;99.90
21627;DHT22;10975;47.872;12.972;2022-12-18T11:44:54;-3.20;99.90
21627;DHT22;10975;47.872;12.972;2022-12-18T11:50:16;-3.10;99.90
21627;DHT22;10975;47.872;12.972;2022-12-18T11:52:45;-3.10;99.90
21627;DHT22;10975;47.872;12.972;2022-12-18T12:01:18;-3.10;99.90
21627;DHT22;10975;47.872;12.972;2022-12-18T12:03:54;-3.10;99.90
21627;DHT22;10975;47.872;12.972;2022-12-18T12:06:29;-3.00;99.90
21627;DHT22;10975;47.872;12.972;2022-12-18T12:37:35;-3.40;99.90
21627;DHT22;10975;47.872;12.972;2022-12-18T12:40:06;-3.40;99.90
21627;DHT22;10975;47.872;12.972;2022-12-18T12:42:58;-3.50;99.90
21627;DHT22;10975;47.872;12.972;2022-12-18T12:45:44;-3.40;99.90
21627;DHT22;10975;47.872;12.972;2022-12-18T12:48:19;-3.40;99.90
21627;DHT22;10975;47.872;12.972;2022-12-18T12:50:47;-3.40;99.90
21627;DHT22;10975;47.872;12.972;2022-12-18T12:53:19;-3.40;99.90
21627;DHT22;10975;47.872;12.972;2022-12-18T12:55:47;-3.40;99.90
21627;DHT22;10975;47.872;12.972;2022-12-18T12:58:26;-3.40;99.90
21627;DHT22;10975;47.872;12.972;2022-12-18T13:01:01;-3.30;99.90
21627;DHT22;10975;47.872;12.972;2022-12-18T13:08:55;-3.30;99.90
21627;DHT22;10975;47.872;12.972;2022-12-18T13:11:39;-3.30;99.90
21627;DHT22;10975;47.872;12.972;2022-12-18T13:14:46;-3.30;99.90
21627;DHT22;10975;47.872;12.972;2022-12-18T13:17:14;-3.40;99.90
21627;DHT22;10975;47.872;12.972;2022-12-18T13:19:48;-3.30;99.90
21627;DHT22;10975;47.872;12.972;2022-12-18T13:22:23;-3.30;99.90
21627;DHT22;10975;47.872;12.972;2022-12-18T13:24:51;-3.30;99.90
21627;DHT22;10975;47.872;12.972;2022-12-18T13:30:52;-3.40;99.90
21627;DHT22;10975;47.872;12.972;2022-12-18T13:40:58;-3.50;99.90
21627;DHT22;10975;47.872;12.972;2022-12-18T13:43:27;-3.50;99.90
21627;DHT22;10975;47.872;12.972;2022-12-18T13:48:23;-3.50;99.90
21627;DHT22;10975;47.872;12.972;2022-12-18T13:51:01;-3.60;99.90
21627;DHT22;10975;47.872;12.972;2022-12-18T13:53:33;-3.60;99.90
21627;DHT22;10975;47.872;12.972;2022-12-18T13:56:01;-3.50;99.90
21627;DHT22;10975;47.872;12.972;2022-12-18T13:58:28;-3.50;99.90
21627;DHT22;10975;47.872;12.972;2022-12-18T14:00:58;-3.60;99.90
21627;DHT22;10975;47.872;12.972;2022-12-18T14:03:28;-3.60;99.90
21627;DHT22;10975;47.872;12.972;2022-12-18T14:06:05;-3.60;99.90
21627;DHT22;10975;47.872;12.972;2022-12-18T14:08:36;-3.60;99.90
21627;DHT22;10975;47.872;12.972;2022-12-18T14:11:04;-3.60;99.90
21627;DHT22;10975;47.872;12.972;2022-12-18T14:13:36;-3.50;99.90
21627;DHT22;10975;47.872;12.972;2022-12-18T14:16:04;-3.50;99.90
21627;DHT22;10975;47.872;12.972;2022-12-18T14:24:37;-3.60;99.90
21627;DHT22;10975;47.872;12.972;2022-12-18T14:36:03;-3.80;99.90
21627;DHT22;10975;47.872;12.972;2022-12-18T14:41:28;-3.90;99.90
21627;DHT22;10975;47.872;12.972;2022-12-18T14:44:04;-4.00;99.90
21627;DHT22;10975;47.872;12.972;2022-12-18T14:46:37;-4.10;99.90
21627;DHT22;10975;47.872;12.972;2022-12-18T14:49:17;-4.10;99.90
21627;DHT22;10975;47.872;12.972;2022-12-18T14:51:56;-4.20;99.90
21627;DHT22;10975;47.872;12.972;2022-12-18T14:54:23;-4.30;99.90
21627;DHT22;10975;47.872;12.972;2022-12-18T14:59:49;-4.40;99.90
21627;DHT22;10975;47.872;12.972;2022-12-18T15:04:46;-4.60;99.90
21627;DHT22;10975;47.872;12.972;2022-12-18T15:07:17;-4.60;99.90
21627;DHT22;10975;47.872;12.972;2022-12-18T15:10:31;-4.70;99.90
21627;DHT22;10975;47.872;12.972;2022-12-18T15:12:33;-4.70;99.90
21627;DHT22;10975;47.872;12.972;2022-12-18T15:17:30;-4.90;99.90
21627;DHT22;10975;47.872;12.972;2022-12-18T15:20:00;-5.00;99.90
21627;DHT22;10975;47.872;12.972;2022-12-18T15:22:28;-5.00;99.90
21627;DHT22;10975;47.872;12.972;2022-12-18T15:24:56;-5.10;99.90
21627;DHT22;10975;47.872;12.972;2022-12-18T15:30:00;-5.10;99.90
21627;DHT22;10975;47.872;12.972;2022-12-18T15:32:27;-5.10;99.90
21627;DHT22;10975;47.872;12.972;2022-12-18T15:37:29;-5.10;99.90
21627;DHT22;10975;47.872;12.972;2022-12-18T15:39:56;-5.20;99.90
21627;DHT22;10975;47.872;12.972;2022-12-18T15:42:22;-5.20;99.90
21627;DHT22;10975;47.872;12.972;2022-12-18T15:45:11;-5.20;99.90
21627;DHT22;10975;47.872;12.972;2022-12-18T15:47:38;-5.30;99.90
21627;DHT22;10975;47.872;12.972;2022-12-18T15:50:05;-5.30;99.90
21627;DHT22;10975;47.872;12.972;2022-12-18T15:52:32;-5.30;99.90
21627;DHT22;10975;47.872;12.972;2022-12-18T15:55:01;-5.40;99.90
21627;DHT22;10975;47.872;12.972;2022-12-18T15:57:46;-5.40;99.90
21627;DHT22;10975;47.872;12.972;2022-12-18T16:00:13;-5.40;99.90
21627;DHT22;10975;47.872;12.972;2022-12-18T16:02:40;-5.40;99.90
21627;DHT22;10975;47.872;12.972;2022-12-18T16:05:13;-5.40;99.90
21627;DHT22;10975;47.872;12.972;2022-12-18T16:07:40;-5.50;99.90
21627;DHT22;10975;47.872;12.972;2022-12-18T16:10:07;-5.50;99.90
21627;DHT22;10975;47.872;12.972;2022-12-18T16:12:34;-5.50;99.90
21627;DHT22;10975;47.872;12.972;2022-12-18T16:15:01;-5.60;99.90
21627;DHT22;10975;47.872;12.972;2022-12-18T16:17:28;-5.70;99.90
21627;DHT22;10975;47.872;12.972;2022-12-18T16:19:55;-5.70;99.90
21627;DHT22;10975;47.872;12.972;2022-12-18T16:22:25;-5.70;99.90
21627;DHT22;10975;47.872;12.972;2022-12-18T16:24:53;-5.80;99.90
21627;DHT22;10975;47.872;12.972;2022-12-18T16:27:20;-5.80;99.90
21627;DHT22;10975;47.872;12.972;2022-12-18T16:29:47;-5.80;99.90
21627;DHT22;10975;47.872;12.972;2022-12-18T16:32:15;-5.80;99.90
21627;DHT22;10975;47.872;12.972;2022-12-18T16:34:43;-6.00;99.90
21627;DHT22;10975;47.872;12.972;2022-12-18T16:37:10;-6.00;99.90
21627;DHT22;10975;47.872;12.972;2022-12-18T16:39:38;-6.00;99.90
21627;DHT22;10975;47.872;12.972;2022-12-18T16:42:26;-6.00;99.90
21627;DHT22;10975;47.872;12.972;2022-12-18T16:44:51;-6.00;99.90
21627;DHT22;10975;47.872;12.972;2022-12-18T16:47:18;-6.00;99.90
21627;DHT22;10975;47.872;12.972;2022-12-18T16:49:45;-6.00;99.90
21627;DHT22;10975;47.872;12.972;2022-12-18T16:52:12;-5.90;99.90
21627;DHT22;10975;47.872;12.972;2022-12-18T16:54:39;-5.80;99.90
21627;DHT22;10975;47.872;12.972;2022-12-18T16:57:05;-5.90;99.90
21627;DHT22;10975;47.872;12.972;2022-12-18T16:59:32;-6.00;99.90
21627;DHT22;10975;47.872;12.972;2022-12-18T17:02:00;-6.10;99.90
21627;DHT22;10975;47.872;12.972;2022-12-18T17:04:41;-6.20;99.90
21627;DHT22;10975;47.872;12.972;2022-12-18T17:07:09;-6.30;99.90
21627;DHT22;10975;47.872;12.972;2022-12-18T17:09:35;-6.40;99.90
21627;DHT22;10975;47.872;12.972;2022-12-18T17:12:02;-6.50;99.90
21627;DHT22;10975;47.872;12.972;2022-12-18T17:14:30;-6.50;99.90
21627;DHT22;10975;47.872;12.972;2022-12-18T17:16:57;-6.50;99.90
21627;DHT22;10975;47.872;12.972;2022-12-18T17:19:45;-6.40;99.90
21627;DHT22;10975;47.872;12.972;2022-12-18T17:22:12;-6.40;99.90
21627;DHT22;10975;47.872;12.972;2022-12-18T17:24:38;-6.40;99.90
21627;DHT22;10975;47.872;12.972;2022-12-18T17:27:05;-6.40;99.90
21627;DHT22;10975;47.872;12.972;2022-12-18T17:29:32;-6.40;99.90
21627;DHT22;10975;47.872;12.972;2022-12-18T17:31:59;-6.40;99.90
21627;DHT22;10975;47.872;12.972;2022-12-18T17:34:27;-6.50;99.90
21627;DHT22;10975;47.872;12.972;2022-12-18T17:36:55;-6.50;99.90
21627;DHT22;10975;47.872;12.972;2022-12-18T17:39:22;-6.50;99.90
21627;DHT22;10975;47.872;12.972;2022-12-18T17:41:48;-6.70;99.90
21627;DHT22;10975;47.872;12.972;2022-12-18T17:44:15;-6.70;99.90
21627;DHT22;10975;47.872;12.972;2022-12-18T17:46:48;-6.70;99.90
21627;DHT22;10975;47.872;12.972;2022-12-18T17:49:36;-6.70;99.90
21627;DHT22;10975;47.872;12.972;2022-12-18T17:52:02;-6.70;99.90
21627;DHT22;10975;47.872;12.972;2022-12-18T17:54:32;-6.70;99.90
21627;DHT22;10975;47.872;12.972;2022-12-18T17:56:59;-6.80;99.90
21627;DHT22;10975;47.872;12.972;2022-12-18T17:59:25;-6.80;99.90
21627;DHT22;10975;47.872;12.972;2022-12-18T18:01:52;-6.80;99.90
21627;DHT22;10975;47.872;12.972;2022-12-18T18:04:25;-6.90;99.90
21627;DHT22;10975;47.872;12.972;2022-12-18T18:06:52;-7.10;99.90
21627;DHT22;10975;47.872;12.972;2022-12-18T18:18:10;-7.10;99.90
21627;DHT22;10975;47.872;12.972;2022-12-18T18:20:44;-7.10;99.90
21627;DHT22;10975;47.872;12.972;2022-12-18T18:23:16;-7.10;99.90
21627;DHT22;10975;47.872;12.972;2022-12-18T18:26:01;-7.10;99.90
21627;DHT22;10975;47.872;12.972;2022-12-18T18:28:29;-7.00;99.90
21627;DHT22;10975;47.872;12.972;2022-12-18T18:30:56;-7.00;99.90
21627;DHT22;10975;47.872;12.972;2022-12-18T18:33:25;-7.00;99.90
21627;DHT22;10975;47.872;12.972;2022-12-18T18:35:52;-7.10;99.90
21627;DHT22;10975;47.872;12.972;2022-12-18T18:38:20;-7.10;99.90
21627;DHT22;10975;47.872;12.972;2022-12-18T18:40:47;-7.10;99.90
21627;DHT22;10975;47.872;12.972;2022-12-18T18:43:13;-7.10;99.90
21627;DHT22;10975;47.872;12.972;2022-12-18T18:45:40;-7.20;99.90
21627;DHT22;10975;47.872;12.972;2022-12-18T18:48:09;-7.30;99.90
21627;DHT22;10975;47.872;12.972;2022-12-18T18:50:35;-7.30;99.90
21627;DHT22;10975;47.872;12.972;2022-12-18T18:53:02;-7.30;99.90
21627;DHT22;10975;47.872;12.972;2022-12-18T18:55:31;-7.20;99.90
21627;DHT22;10975;47.872;12.972;2022-12-18T18:58:12;-7.30;99.90
21627;DHT22;10975;47.872;12.972;2022-12-18T19:00:41;-7.30;99.90
21627;DHT22;10975;47.872;12.972;2022-12-18T19:03:08;-7.30;99.90
21627;DHT22;10975;47.872;12.972;2022-12-18T19:05:40;-7.30;99.90
21627;DHT22;10975;47.872;12.972;2022-12-18T19:08:12;-7.30;99.90
21627;DHT22;10975;47.872;12.972;2022-12-18T19:10:57;-7.30;99.90
21627;DHT22;10975;47.872;12.972;2022-12-18T19:13:32;-7.30;99.90
21627;DHT22;10975;47.872;12.972;2022-12-18T19:20:12;-7.50;99.90
21627;DHT22;10975;47.872;12.972;2022-12-18T19:23:10;-7.70;99.90